Saturday, May 26, 2018, 12:06 PM GMT
Back to Local

CWSA, Sable Island, N. S.

Location: , , Canada Lat: 43.933
Local Time: 12:06 PM GMT (12:06 GMT) Lon: -60.017
Time Zone: GMT Elev: 13 ft

Show me the last for .
Show Decoded

2018-05-26 11:54 METAR CWSA 261154Z AUTO 24014KT 2 1/2SM -RA BR FEW070 10/09 A2966 RMK PRESFR
                 SLP044 =
2018-05-26 11:00 METAR CWSA 261100Z AUTO 23012KT 2 1/2SM BR SCT075 10/09 A2968 RMK SLP053 =
2018-05-26 10:00 METAR CWSA 261000Z AUTO 23011KT 2 1/2SM BR FEW041 OVC090 09/09 A2966 RMK SLP044
                 =
2018-05-26 09:45 METAR CWSA 260945Z AUTO 22011KT 2 1/2SM -RA BR FEW039 OVC090 09/08 A2965 RMK
                 SLP043 =
2018-05-26 09:00 METAR CWSA 260900Z AUTO 22009KT 2 1/2SM BR FEW090 09/08 A2965 RMK SLP043 =
2018-05-26 08:00 METAR CWSA 260800Z AUTO 22012KT 2 1/2SM BR FEW085 09/08 A2965 RMK VIS VRB 1
                 3/4-3 SLP041 =
2018-05-26 07:00 METAR CWSA 260700Z AUTO 24010KT 2SM BR CLR 09/08 A2966 RMK SLP045 =
2018-05-26 06:40 METAR CWSA 260640Z AUTO 23011KT 2 1/2SM BR CLR 09/08 A2966 RMK SLP044 =
2018-05-26 06:12 METAR CWSA 260612Z AUTO 22015KT 3SM BR CLR 09/08 A2965 RMK SLP043 =
2018-05-26 06:00 METAR CWSA 260600Z AUTO 21014KT 2 1/2SM BR CLR 09/08 A2965 RMK SLP042 =
2018-05-26 05:00 METAR CWSA 260500Z AUTO 21014KT 1 3/4SM BR CLR 09/08 A2968 RMK SLP050 =
2018-05-26 04:00 METAR CWSA 260400Z AUTO 20010KT 1 1/4SM BR CLR 09/08 A2968 RMK SLP053 =
2018-05-26 03:00 METAR CWSA 260300Z AUTO 22009KT 1 1/2SM BR FEW140 09/08 A2970 RMK SLP057 =
2018-05-26 02:00 METAR CWSA 260200Z AUTO 25007KT 1 3/4SM BR SCT100 SCT120 09/09 A2972 RMK PRESRR
                 SLP065 =
2018-05-26 01:00 METAR CWSA 260100Z AUTO 24012KT 2 1/4SM BR BKN095 09/09 A2970 RMK SLP058 =
2018-05-26 00:51 METAR CWSA 260051Z AUTO 23012KT 2 1/4SM BR BKN100 09/09 A2969 RMK SLP056 =
2018-05-26 00:00 METAR CWSA 260000Z AUTO 23014KT 3SM BR BKN130 09/09 A2968 RMK SLP051 =
2018-05-25 23:24 METAR CWSA 252324Z AUTO 23013KT 3SM BR BKN120 10/09 A2968 RMK SLP053 =
2018-05-25 23:00 METAR CWSA 252300Z AUTO 24012G17KT 2 1/2SM BR SCT130 10/09 A2969 RMK SLP054 =
2018-05-25 22:51 METAR CWSA 252251Z AUTO 24014KT 2 1/2SM BR SCT130 10/09 A2969 RMK SLP055 =
2018-05-25 22:00 METAR CWSA 252200Z AUTO 24015KT 4SM BR FEW120 10/09 A2969 RMK SLP055 =
2018-05-25 21:42 METAR CWSA 252142Z AUTO 24014G19KT 4SM BR SCT100 SCT120 10/09 A2969 RMK SLP055 =
2018-05-25 21:00 METAR CWSA 252100Z AUTO 22023G28KT 4SM -RA BR FEW038 SCT060 OVC100 10/09 A2968
                 RMK PRESFR SLP052 =
2018-05-25 20:30 METAR CWSA 252030Z AUTO 22021G27KT 5SM -RA BR FEW043 BKN083 BKN100 10/09 A2971
                 RMK PRESFR SLP062 =
2018-05-25 20:18 METAR CWSA 252018Z AUTO 21024G30KT 6SM -RA BR FEW080 BKN097 11/09 A2972 RMK
                 SLP066 =
2018-05-25 20:00 METAR CWSA 252000Z AUTO 20024G29KT 5SM -RA BR FEW045 SCT065 SCT077 OVC095 11/09
                 A2973 RMK SLP067 =
2018-05-25 19:00 METAR CWSA 251900Z AUTO 19019KT 4SM -RA BR OVC035 10/09 A2977 RMK SLP083 =
2018-05-25 18:00 METAR CWSA 251800Z AUTO 19020G25KT 3SM -RA BR FEW034 BKN045 OVC055 09/08 A2979
                 RMK PCPN 2.5MM PAST HR SLP089 =
2018-05-25 17:00 METAR CWSA 251700Z AUTO 18015KT 5SM -RA BR FEW041 OVC055 09/08 A2983 RMK SLP102
                 =
2018-05-25 16:50 METAR CWSA 251650Z AUTO 18016KT 5SM -RA BR OVC055 09/08 A2984 RMK PRESFR SLP105
                 =
2018-05-25 16:00 METAR CWSA 251600Z AUTO 19018G24KT 8SM -RA BKN060 OVC072 09/07 A2987 RMK SLP115
                 =
2018-05-25 15:11 METAR CWSA 251511Z AUTO 19022KT 6SM -RA BR OVC065 09/07 A2990 RMK SLP126 =
2018-05-25 15:00 METAR CWSA 251500Z AUTO 19020G27KT 4SM -RA BR OVC060 08/07 A2991 RMK PRESFR
                 SLP128 =
2018-05-25 14:21 METAR CWSA 251421Z AUTO 20018KT 5SM -RA BR OVC055 08/07 A2993 RMK SLP136 =
2018-05-25 14:00 METAR CWSA 251400Z AUTO 20020G25KT 6SM -RA BR OVC060 08/06 A2993 RMK SLP135 =
2018-05-25 13:00 METAR CWSA 251300Z AUTO 19017KT 9SM -RA OVC060 08/06 A2995 RMK PRESFR SLP142 =
2018-05-25 12:59 METAR CWSA 251259Z AUTO 19017KT 9SM -RA OVC060 08/06 A2995 RMK SLP142 =

Support USWX by starting your Amazon purchase here.